PWSweather.com
Personal Weather Stations
Station Observations
ISARDEGN48
BittiIT 08021

BittiIT 08021

Lat: 40.4805, Lon: 9.3887

Elevation: 1804

Station Type: La Crosse WS2355

http://meteobitti.altervista.org

Latest ConditionsUpdated 5:10:14 AM GMT+01:01 Wednesday, Jun 26, 2019
Currently Today's Max Today's Min Today's Average
Temperature 68.4°F20.2°C 71.8°F22.1°C 67.6°F19.8°C 69.5°F20.8°C
Dew Point 55.7°F13.2°C 55.8°F13.2°C 51.7°F10.9°C 53.1°F11.7°C
Winds 1.6 mph SW2.6 kmh SW 2.5 mph -4.0 kmh - - 0.2 mph 0.3 kmh
Wind Gusts 2.5 mph4.0 kmh 5.4 mph8.7 kmh - -
Humidity 64% 64% 52% 56%
Pressure 30.94 in1047.7 mb 30.96 in1048.4 mb 30.93 in1047.4 mb -
Hour Temp Dew Point Humidity Winds Wind Gusts Pressure Precip Precip Rate Daily Precip Total
05:10 AM 68.4°F20.2°C 55.7°F13.2°C 64% 1.6 mph SW2.6 kmh SW 2.5 mph4.0 kmh 30.94 in1047.7 mb 0.00 in0.0 mm 0.00 in0.0 mm 0.00 in0.0 mm
05:05 AM 68.5°F20.3°C 55.8°F13.2°C 64% Calm Calm 1.8 mph2.9 kmh 30.94 in1047.7 mb 0.00 in0.0 mm 0.00 in0.0 mm 0.00 in0.0 mm
05:00 AM 68.4°F20.2°C 55.2°F12.9°C 63% Calm Calm 1.1 mph1.8 kmh 30.94 in1047.7 mb 0.00 in0.0 mm 0.00 in0.0 mm 0.00 in0.0 mm
04:55 AM 68.2°F20.1°C 55.5°F13.1°C 64% Calm Calm 2.0 mph3.2 kmh 30.94 in1047.7 mb 0.00 in0.0 mm 0.00 in0.0 mm 0.00 in0.0 mm
04:50 AM 68.0°F20.0°C 55.3°F12.9°C 64% 0.9 mph W1.4 kmh W 2.0 mph3.2 kmh 30.94 in1047.7 mb 0.00 in0.0 mm 0.00 in0.0 mm 0.00 in0.0 mm
04:45 AM 68.2°F20.1°C 54.6°F12.6°C 62% Calm Calm 1.8 mph2.9 kmh 30.94 in1047.7 mb 0.00 in0.0 mm 0.00 in0.0 mm 0.00 in0.0 mm
04:40 AM 68.4°F20.2°C 54.8°F12.7°C 62% Calm Calm 1.3 mph2.1 kmh 30.94 in1047.7 mb 0.00 in0.0 mm 0.00 in0.0 mm 0.00 in0.0 mm
04:35 AM 68.2°F20.1°C 55.1°F12.8°C 63% Calm Calm 1.8 mph2.9 kmh 30.93 in1047.4 mb 0.00 in0.0 mm 0.00 in0.0 mm 0.00 in0.0 mm
04:30 AM 67.8°F19.9°C 54.3°F12.4°C 62% Calm Calm 1.8 mph2.9 kmh 30.93 in1047.4 mb 0.00 in0.0 mm 0.00 in0.0 mm 0.00 in0.0 mm
04:25 AM 67.8°F19.9°C 54.3°F12.4°C 62% Calm Calm -- 30.93 in1047.4 mb 0.00 in0.0 mm 0.00 in0.0 mm 0.00 in0.0 mm
04:20 AM 67.6°F19.8°C 54.1°F12.3°C 62% Calm Calm -- 30.93 in1047.4 mb 0.00 in0.0 mm 0.00 in0.0 mm 0.00 in0.0 mm
04:15 AM 67.6°F19.8°C 54.1°F12.3°C 62% Calm Calm -- 30.93 in1047.4 mb 0.00 in0.0 mm 0.00 in0.0 mm 0.00 in0.0 mm
04:10 AM 67.8°F19.9°C 53.4°F11.9°C 60% Calm Calm 0.9 mph1.4 kmh 30.93 in1047.4 mb 0.00 in0.0 mm 0.00 in0.0 mm 0.00 in0.0 mm
04:05 AM 68.2°F20.1°C 53.8°F12.1°C 60% Calm Calm 0.9 mph1.4 kmh 30.93 in1047.4 mb 0.00 in0.0 mm 0.00 in0.0 mm 0.00 in0.0 mm
04:00 AM 68.2°F20.1°C 53.8°F12.1°C 60% Calm Calm 1.1 mph1.8 kmh 30.93 in1047.4 mb 0.00 in0.0 mm 0.00 in0.0 mm 0.00 in0.0 mm
03:55 AM 68.4°F20.2°C 53.5°F11.9°C 59% Calm Calm 1.1 mph1.8 kmh 30.93 in1047.4 mb 0.00 in0.0 mm 0.00 in0.0 mm 0.00 in0.0 mm
03:50 AM 68.5°F20.3°C 53.2°F11.8°C 58% Calm Calm 1.1 mph1.8 kmh 30.93 in1047.4 mb 0.00 in0.0 mm 0.00 in0.0 mm 0.00 in0.0 mm
03:45 AM 68.9°F20.5°C 53.5°F11.9°C 58% Calm Calm 2.0 mph3.2 kmh 30.93 in1047.4 mb 0.00 in0.0 mm 0.00 in0.0 mm 0.00 in0.0 mm
03:40 AM 68.9°F20.5°C 53.5°F11.9°C 58% Calm Calm 2.0 mph3.2 kmh 30.93 in1047.4 mb 0.00 in0.0 mm 0.00 in0.0 mm 0.00 in0.0 mm
03:35 AM 68.9°F20.5°C 53.0°F11.7°C 57% Calm Calm 1.6 mph2.6 kmh 30.93 in1047.4 mb 0.00 in0.0 mm 0.00 in0.0 mm 0.00 in0.0 mm
03:30 AM 69.1°F20.6°C 53.2°F11.8°C 57% Calm Calm 2.9 mph4.7 kmh 30.93 in1047.4 mb 0.00 in0.0 mm 0.00 in0.0 mm 0.00 in0.0 mm
03:25 AM 69.3°F20.7°C 53.9°F12.2°C 58% 1.3 mph SW2.1 kmh SW 2.9 mph4.7 kmh 30.93 in1047.4 mb 0.00 in0.0 mm 0.00 in0.0 mm 0.00 in0.0 mm
03:20 AM 69.1°F20.6°C 53.2°F11.8°C 57% Calm Calm 1.1 mph1.8 kmh 30.93 in1047.4 mb 0.00 in0.0 mm 0.00 in0.0 mm 0.00 in0.0 mm
03:15 AM 69.3°F20.7°C 52.9°F11.6°C 56% Calm Calm 0.7 mph1.1 kmh 30.93 in1047.4 mb 0.00 in0.0 mm 0.00 in0.0 mm 0.00 in0.0 mm
03:10 AM 69.6°F20.9°C 53.2°F11.8°C 56% Calm Calm 2.0 mph3.2 kmh 30.93 in1047.4 mb 0.00 in0.0 mm 0.00 in0.0 mm 0.00 in0.0 mm
03:05 AM 69.8°F21.0°C 53.4°F11.9°C 56% Calm Calm 2.0 mph3.2 kmh 30.93 in1047.4 mb 0.00 in0.0 mm 0.00 in0.0 mm 0.00 in0.0 mm
03:00 AM 69.8°F21.0°C 53.4°F11.9°C 56% 1.1 mph WSW1.8 kmh WSW 1.8 mph2.9 kmh 30.93 in1047.4 mb 0.00 in0.0 mm 0.00 in0.0 mm 0.00 in0.0 mm
02:55 AM 69.6°F20.9°C 53.2°F11.8°C 56% Calm Calm 1.6 mph2.6 kmh 30.94 in1047.7 mb 0.00 in0.0 mm 0.00 in0.0 mm 0.00 in0.0 mm
02:50 AM 69.4°F20.8°C 53.0°F11.7°C 56% Calm Calm 1.3 mph2.1 kmh 30.94 in1047.7 mb 0.00 in0.0 mm 0.00 in0.0 mm 0.00 in0.0 mm
02:45 AM 69.1°F20.6°C 52.2°F11.2°C 55% Calm Calm 1.3 mph2.1 kmh 30.94 in1047.7 mb 0.00 in0.0 mm 0.00 in0.0 mm 0.00 in0.0 mm
02:40 AM 69.1°F20.6°C 52.2°F11.2°C 55% Calm Calm 1.3 mph2.1 kmh 30.94 in1047.7 mb 0.00 in0.0 mm 0.00 in0.0 mm 0.00 in0.0 mm
02:35 AM 69.1°F20.6°C 52.2°F11.2°C 55% Calm Calm 0.9 mph1.4 kmh 30.94 in1047.7 mb 0.00 in0.0 mm 0.00 in0.0 mm 0.00 in0.0 mm
02:30 AM 69.1°F20.6°C 52.2°F11.2°C 55% Calm Calm 1.3 mph2.1 kmh 30.94 in1047.7 mb 0.00 in0.0 mm 0.00 in0.0 mm 0.00 in0.0 mm
02:25 AM 69.1°F20.6°C 52.2°F11.2°C 55% Calm Calm 1.3 mph2.1 kmh 30.95 in1048.1 mb 0.00 in0.0 mm 0.00 in0.0 mm 0.00 in0.0 mm
02:20 AM 69.1°F20.6°C 52.2°F11.2°C 55% Calm Calm 1.1 mph1.8 kmh 30.95 in1048.1 mb 0.00 in0.0 mm 0.00 in0.0 mm 0.00 in0.0 mm
02:15 AM 69.1°F20.6°C 51.7°F10.9°C 54% Calm Calm 1.1 mph1.8 kmh 30.95 in1048.1 mb 0.00 in0.0 mm 0.00 in0.0 mm 0.00 in0.0 mm
02:10 AM 69.3°F20.7°C 51.9°F11.1°C 54% Calm Calm 1.6 mph2.6 kmh 30.95 in1048.1 mb 0.00 in0.0 mm 0.00 in0.0 mm 0.00 in0.0 mm
02:05 AM 69.3°F20.7°C 51.9°F11.1°C 54% Calm Calm 1.6 mph2.6 kmh 30.95 in1048.1 mb 0.00 in0.0 mm 0.00 in0.0 mm 0.00 in0.0 mm
02:00 AM 69.6°F20.9°C 52.2°F11.2°C 54% Calm Calm 0.9 mph1.4 kmh 30.95 in1048.1 mb 0.00 in0.0 mm 0.00 in0.0 mm 0.00 in0.0 mm
01:55 AM 69.6°F20.9°C 52.2°F11.2°C 54% Calm Calm 1.6 mph2.6 kmh 30.95 in1048.1 mb 0.00 in0.0 mm 0.00 in0.0 mm 0.00 in0.0 mm
01:50 AM 69.8°F21.0°C 51.9°F11.1°C 53% Calm Calm 1.8 mph2.9 kmh 30.95 in1048.1 mb 0.00 in0.0 mm 0.00 in0.0 mm 0.00 in0.0 mm
01:45 AM 70.0°F21.1°C 52.0°F11.1°C 53% Calm Calm 1.8 mph2.9 kmh 30.95 in1048.1 mb 0.00 in0.0 mm 0.00 in0.0 mm 0.00 in0.0 mm
01:40 AM 70.2°F21.2°C 52.2°F11.2°C 53% Calm Calm 2.2 mph3.5 kmh 30.95 in1048.1 mb 0.00 in0.0 mm 0.00 in0.0 mm 0.00 in0.0 mm
01:35 AM 70.3°F21.3°C 52.4°F11.3°C 53% Calm Calm 2.2 mph3.5 kmh 30.95 in1048.1 mb 0.00 in0.0 mm 0.00 in0.0 mm 0.00 in0.0 mm
01:30 AM 70.3°F21.3°C 52.4°F11.3°C 53% Calm Calm 1.6 mph2.6 kmh 30.95 in1048.1 mb 0.00 in0.0 mm 0.00 in0.0 mm 0.00 in0.0 mm
01:25 AM 70.5°F21.4°C 52.0°F11.1°C 52% Calm Calm 3.6 mph5.8 kmh 30.95 in1048.1 mb 0.00 in0.0 mm 0.00 in0.0 mm 0.00 in0.0 mm
01:20 AM 70.7°F21.5°C 52.2°F11.2°C 52% Calm Calm 3.6 mph5.8 kmh 30.95 in1048.1 mb 0.00 in0.0 mm 0.00 in0.0 mm 0.00 in0.0 mm
01:15 AM 70.3°F21.3°C 52.4°F11.3°C 53% 1.3 mph SW2.1 kmh SW 2.7 mph4.3 kmh 30.95 in1048.1 mb 0.00 in0.0 mm 0.00 in0.0 mm 0.00 in0.0 mm
01:10 AM 70.3°F21.3°C 52.4°F11.3°C 53% Calm Calm 1.6 mph2.6 kmh 30.95 in1048.1 mb 0.00 in0.0 mm 0.00 in0.0 mm 0.00 in0.0 mm
01:05 AM 70.5°F21.4°C 52.5°F11.4°C 53% Calm Calm -- 30.95 in1048.1 mb 0.00 in0.0 mm 0.00 in0.0 mm 0.00 in0.0 mm
01:00 AM 70.7°F21.5°C 52.2°F11.2°C 52% Calm Calm 2.0 mph3.2 kmh 30.95 in1048.1 mb 0.00 in0.0 mm 0.00 in0.0 mm 0.00 in0.0 mm
12:55 AM 70.9°F21.6°C 52.3°F11.3°C 52% Calm Calm 3.4 mph5.5 kmh 30.95 in1048.1 mb 0.00 in0.0 mm 0.00 in0.0 mm 0.00 in0.0 mm
12:50 AM 70.9°F21.6°C 52.3°F11.3°C 52% 2.5 mph SW4.0 kmh SW 3.4 mph5.5 kmh 30.95 in1048.1 mb 0.00 in0.0 mm 0.00 in0.0 mm 0.00 in0.0 mm
12:45 AM 70.9°F21.6°C 52.8°F11.6°C 53% Calm Calm 2.2 mph3.5 kmh 30.95 in1048.1 mb 0.00 in0.0 mm 0.00 in0.0 mm 0.00 in0.0 mm
12:40 AM 71.2°F21.8°C 52.7°F11.5°C 52% Calm Calm 2.2 mph3.5 kmh 30.96 in1048.4 mb 0.00 in0.0 mm 0.00 in0.0 mm 0.00 in0.0 mm
12:35 AM 71.2°F21.8°C 52.7°F11.5°C 52% Calm Calm 2.2 mph3.5 kmh 30.96 in1048.4 mb 0.00 in0.0 mm 0.00 in0.0 mm 0.00 in0.0 mm
12:30 AM 71.4°F21.9°C 52.8°F11.6°C 52% 1.8 mph SW2.9 kmh SW 2.2 mph3.5 kmh 30.96 in1048.4 mb 0.00 in0.0 mm 0.00 in0.0 mm 0.00 in0.0 mm
12:25 AM 71.4°F21.9°C 52.8°F11.6°C 52% Calm Calm 2.5 mph4.0 kmh 30.96 in1048.4 mb 0.00 in0.0 mm 0.00 in0.0 mm 0.00 in0.0 mm
12:20 AM 71.4°F21.9°C 52.8°F11.6°C 52% 2.5 mph SW4.0 kmh SW 2.5 mph4.0 kmh 30.96 in1048.4 mb 0.00 in0.0 mm 0.00 in0.0 mm 0.00 in0.0 mm
12:15 AM 71.4°F21.9°C 52.8°F11.6°C 52% Calm Calm 1.3 mph2.1 kmh 30.96 in1048.4 mb 0.00 in0.0 mm 0.00 in0.0 mm 0.00 in0.0 mm
12:10 AM 71.6°F22.0°C 53.0°F11.7°C 52% 0.9 mph SW1.4 kmh SW 3.4 mph5.5 kmh 30.96 in1048.4 mb 0.00 in0.0 mm 0.00 in0.0 mm 0.00 in0.0 mm
12:05 AM 71.8°F22.1°C 53.2°F11.8°C 52% Calm Calm 3.4 mph5.5 kmh 30.96 in1048.4 mb 0.00 in0.0 mm 0.00 in0.0 mm 0.00 in0.0 mm
12:00 AM 71.8°F22.1°C 53.2°F11.8°C 52% Calm Calm 5.4 mph8.7 kmh 30.96 in1048.4 mb 0.00 in0.0 mm 0.00 in0.0 mm 0.00 in0.0 mm